Time;durP1;ratioP1;P1;durP2;ratioP2;P2;SDS_P1;SDS_P2;PMS_P1;PMS_P2;Temp;Humidity;BMP_temperature;BMP_pressure;BME280_temperature;BME280_humidity;BME280_pressure;Samples;Min_cycle;Max_cycle;Signal;HPM_P1;HPM_P2
2023/03/18 00:01:13;;;;;;;20.50;14.65;;;11.30;99.90;;;;;;4987996;28;20093;-62
2023/03/18 00:03:39;;;;;;;19.95;14.32;;;11.70;99.90;;;;;;4983707;28;20517;-62
2023/03/18 00:06:08;;;;;;;22.98;15.85;;;11.20;99.90;;;;;;4991150;28;20089;-61
2023/03/18 00:08:35;;;;;;;19.77;14.77;;;11.10;99.90;;;;;;4992119;28;20038;-62
2023/03/18 00:11:04;;;;;;;20.58;15.30;;;11.40;99.90;;;;;;4985769;28;20047;-62
2023/03/18 00:13:30;;;;;;;19.55;15.82;;;11.30;99.90;;;;;;4982193;28;20109;-61
2023/03/18 00:15:56;;;;;;;21.80;15.80;;;10.90;99.90;;;;;;4984969;28;20038;-62
2023/03/18 00:18:22;;;;;;;19.52;15.48;;;11.00;99.90;;;;;;4990370;28;20285;-62
2023/03/18 00:20:47;;;;;;;23.52;14.93;;;11.00;99.90;;;;;;4989218;28;20045;-62
2023/03/18 00:23:13;;;;;;;20.65;15.32;;;11.50;99.90;;;;;;4991218;28;20030;-61
2023/03/18 00:25:39;;;;;;;20.90;16.23;;;10.80;99.90;;;;;;4991318;28;20034;-62
2023/03/18 00:28:06;;;;;;;22.52;15.50;;;;;;;;;;4991025;28;20057;-62
2023/03/18 00:30:33;;;;;;;21.58;14.95;;;11.00;99.90;;;;;;4991210;28;20057;-62
2023/03/18 00:32:59;;;;;;;22.17;16.65;;;10.70;99.90;;;;;;4996008;28;20038;-62
2023/03/18 00:35:29;;;;;;;21.15;16.05;;;11.70;99.90;;;;;;4972353;28;20035;-62
2023/03/18 00:37:56;;;;;;;21.98;17.02;;;11.00;99.90;;;;;;4985557;28;20046;-63
2023/03/18 00:40:28;;;;;;;22.60;16.38;;;11.00;99.90;;;;;;4991821;28;20045;-62
2023/03/18 00:43:06;;;;;;;23.25;17.42;;;11.40;99.90;;;;;;4978783;28;20030;-62
2023/03/18 00:45:33;;;;;;;20.65;17.38;;;10.90;99.90;;;;;;4986314;28;20053;-62
2023/03/18 00:47:58;;;;;;;21.02;16.85;;;11.10;99.90;;;;;;4987384;28;20057;-62
2023/03/18 00:50:24;;;;;;;26.88;19.40;;;11.00;99.90;;;;;;4989708;28;20034;-62
2023/03/18 00:52:49;;;;;;;27.48;20.70;;;11.10;99.90;;;;;;4993438;28;20034;-62
2023/03/18 00:55:15;;;;;;;26.77;19.67;;;10.90;99.90;;;;;;4988924;28;20113;-62
2023/03/18 00:57:41;;;;;;;28.92;19.08;;;10.90;99.90;;;;;;4989807;28;20162;-62
2023/03/18 01:00:08;;;;;;;26.73;21.42;;;11.00;99.90;;;;;;4982667;28;20046;-62
2023/03/18 01:02:34;;;;;;;26.67;19.77;;;11.20;99.90;;;;;;4988746;28;20046;-63
2023/03/18 01:05:00;;;;;;;33.05;22.55;;;11.10;99.90;;;;;;4992590;28;20048;-62
2023/03/18 01:07:26;;;;;;;30.17;22.17;;;11.20;99.90;;;;;;4994216;28;20042;-62
2023/03/18 01:09:53;;;;;;;32.40;23.90;;;10.90;99.90;;;;;;4976886;28;20039;-62
2023/03/18 01:12:19;;;;;;;33.42;22.00;;;11.10;99.90;;;;;;4981213;28;20054;-62
2023/03/18 01:14:45;;;;;;;32.17;22.02;;;10.80;99.90;;;;;;4975295;28;20049;-62
2023/03/18 01:17:11;;;;;;;35.03;24.23;;;10.80;99.90;;;;;;4980789;28;20554;-62
2023/03/18 01:19:37;;;;;;;30.90;22.02;;;10.70;99.90;;;;;;4989811;28;20031;-62
2023/03/18 01:22:03;;;;;;;31.50;23.83;;;10.80;99.90;;;;;;4982403;28;20041;-62
2023/03/18 01:24:29;;;;;;;37.85;26.15;;;10.60;99.90;;;;;;4985167;28;20042;-62
2023/03/18 01:26:55;;;;;;;33.75;26.10;;;10.70;99.90;;;;;;4990218;28;20079;-62
2023/03/18 01:29:22;;;;;;;33.22;25.83;;;10.30;99.90;;;;;;4986509;28;20046;-62
2023/03/18 01:31:50;;;;;;;36.72;25.85;;;;;;;;;;4987928;28;20112;-62
2023/03/18 01:34:16;;;;;;;36.42;24.98;;;10.60;1.00;;;;;;4987716;28;20049;-61
2023/03/18 01:36:42;;;;;;;37.90;26.35;;;10.50;1.00;;;;;;4989958;28;20038;-63
2023/03/18 01:39:09;;;;;;;35.55;27.33;;;10.60;1.00;;;;;;4989332;28;20034;-61
2023/03/18 01:41:35;;;;;;;39.33;27.45;;;10.00;1.00;;;;;;4988658;28;20084;-62
2023/03/18 01:44:03;;;;;;;36.63;27.20;;;9.80;1.00;;;;;;4988736;28;20034;-62
2023/03/18 01:46:38;;;;;;;38.20;29.08;;;9.30;1.00;;;;;;4989057;28;20081;-62
2023/03/18 01:49:09;;;;;;;36.13;27.13;;;;;;;;;;4989944;28;20041;-61
2023/03/18 01:51:37;;;;;;;37.00;29.08;;;9.50;1.00;;;;;;4983524;28;20496;-61
2023/03/18 01:54:05;;;;;;;38.97;28.63;;;9.40;1.00;;;;;;4984867;28;20042;-62
2023/03/18 01:56:33;;;;;;;36.58;28.10;;;;;;;;;;4987834;28;20496;-62
2023/03/18 01:58:59;;;;;;;37.33;30.23;;;9.30;1.00;;;;;;4978720;28;20062;-61
2023/03/18 02:01:29;;;;;;;40.45;30.30;;;;;;;;;;4986027;28;20468;-61
2023/03/18 02:03:56;;;;;;;40.22;28.88;;;9.20;67.40;;;;;;4986859;28;20121;-61
2023/03/18 02:06:23;;;;;;;41.00;30.73;;;;;;;;;;4988339;28;20035;-62
2023/03/18 02:08:49;;;;;;;41.63;30.98;;;8.90;99.90;;;;;;4986613;28;20065;-61
2023/03/18 02:11:16;;;;;;;40.63;29.80;;;;;;;;;;4989475;28;20073;-62
2023/03/18 02:13:44;;;;;;;41.42;29.83;;;8.80;99.90;;;;;;4980348;28;20042;-61
2023/03/18 02:16:33;;;;;;;40.97;30.58;;;8.60;99.90;;;;;;4980794;28;20097;-62
2023/03/18 02:19:06;;;;;;;41.50;31.80;;;8.70;99.90;;;;;;4984491;28;20049;-62
2023/03/18 02:21:44;;;;;;;39.70;30.33;;;;;;;;;;4978617;28;20030;-62
2023/03/18 02:24:16;;;;;;;45.22;32.25;;;;;;;;;;4984051;28;20038;-62
2023/03/18 02:27:04;;;;;;;45.38;32.90;;;8.80;99.90;;;;;;4984349;28;20446;-62
2023/03/18 02:29:32;;;;;;;43.75;33.70;;;;;;;;;;4986534;28;20117;-62
2023/03/18 02:32:01;;;;;;;39.42;30.92;;;8.60;99.90;;;;;;4989318;28;20097;-61
2023/03/18 02:34:28;;;;;;;45.83;33.63;;;8.50;99.90;;;;;;4987467;28;20468;-63
2023/03/18 02:36:54;;;;;;;45.47;33.47;;;8.90;99.90;;;;;;4989661;28;20046;-61
2023/03/18 02:39:21;;;;;;;42.38;33.20;;;;;;;;;;4982272;28;20520;-61
2023/03/18 02:41:47;;;;;;;51.17;36.78;;;;;;;;;;4988624;28;20042;-62
2023/03/18 02:44:13;;;;;;;49.22;37.35;;;;;;;;;;4988903;28;20035;-62
2023/03/18 02:46:58;;;;;;;50.60;37.90;;;;;;;;;;4989118;28;20045;-62
2023/03/18 02:49:26;;;;;;;48.70;35.60;;;7.80;16.50;;;;;;4984492;28;20042;-63
2023/03/18 02:51:52;;;;;;;49.92;37.13;;;7.60;23.20;;;;;;4977704;28;20041;-61
2023/03/18 02:54:27;;;;;;;47.47;35.35;;;;;;;;;;4988726;28;20034;-62
2023/03/18 02:56:53;;;;;;;52.17;35.88;;;7.90;99.90;;;;;;4984293;28;20053;-62
2023/03/18 02:59:20;;;;;;;52.60;36.50;;;8.10;99.90;;;;;;4992156;28;20048;-61
2023/03/18 03:01:48;;;;;;;54.60;38.75;;;;;;;;;;4984145;28;20046;-62
2023/03/18 03:04:15;;;;;;;53.35;39.67;;;7.50;1.00;;;;;;4981927;28;20088;-61
2023/03/18 03:06:41;;;;;;;57.65;40.28;;;7.70;99.90;;;;;;4984867;28;20046;-61
2023/03/18 03:09:12;;;;;;;54.97;38.47;;;7.60;99.90;;;;;;4992467;28;20337;-62
2023/03/18 03:11:39;;;;;;;59.53;41.22;;;7.60;1.00;;;;;;4976369;28;20049;-62
2023/03/18 03:14:05;;;;;;;64.07;43.15;;;7.70;99.90;;;;;;4996554;28;20066;-60
2023/03/18 03:16:31;;;;;;;59.88;42.05;;;7.70;99.90;;;;;;4989643;28;20043;-61
2023/03/18 03:18:57;;;;;;;58.58;41.40;;;7.60;99.90;;;;;;4981540;28;20041;-61
2023/03/18 03:21:24;;;;;;;59.78;43.35;;;;;;;;;;4977651;28;20644;-62
2023/03/18 03:23:51;;;;;;;68.60;43.83;;;7.80;99.90;;;;;;4979917;28;20066;-62
2023/03/18 03:26:17;;;;;;;59.75;43.40;;;7.40;99.90;;;;;;4988714;28;20045;-62
2023/03/18 03:28:43;;;;;;;67.72;45.33;;;7.70;99.90;;;;;;4990787;28;20038;-62
2023/03/18 03:31:09;;;;;;;67.82;43.47;;;7.00;99.90;;;;;;4987584;28;20097;-62
2023/03/18 03:33:40;;;;;;;69.10;46.67;;;6.90;99.90;;;;;;4985121;28;20508;-62
2023/03/18 03:36:07;;;;;;;64.70;44.35;;;;;;;;;;4990768;28;21538;-62
2023/03/18 03:38:32;;;;;;;65.85;42.45;;;7.20;60.90;;;;;;4985247;28;20038;-62
2023/03/18 03:40:58;;;;;;;69.80;47.35;;;;;;;;;;4990406;28;20150;-62
2023/03/18 03:43:24;;;;;;;72.32;47.25;;;;;;;;;;4984814;28;20034;-62
2023/03/18 03:45:50;;;;;;;72.05;45.50;;;7.10;99.90;;;;;;4992257;28;20041;-62
2023/03/18 03:48:16;;;;;;;77.47;48.97;;;7.10;1.00;;;;;;4985041;28;20489;-61
2023/03/18 03:50:42;;;;;;;75.50;49.45;;;7.30;1.00;;;;;;4991626;28;20038;-65
2023/03/18 03:53:09;;;;;;;74.63;46.90;;;6.90;99.90;;;;;;4991786;28;20511;-61
2023/03/18 03:55:35;;;;;;;74.82;48.85;;;7.00;99.90;;;;;;4985092;28;20042;-63
2023/03/18 03:58:01;;;;;;;74.43;46.30;;;;;;;;;;4969444;28;20073;-62
2023/03/18 04:00:28;;;;;;;71.85;47.08;;;;;;;;;;4989716;28;20035;-61
2023/03/18 04:02:53;;;;;;;76.45;47.65;;;7.30;99.90;;;;;;4991937;28;20512;-62
2023/03/18 04:05:22;;;;;;;79.45;49.08;;;7.30;99.90;;;;;;4989114;28;20057;-61
2023/03/18 04:07:48;;;;;;;87.15;49.13;;;;;;;;;;4991759;28;20231;-63
2023/03/18 04:10:16;;;;;;;78.93;53.10;;;7.10;41.90;;;;;;4990243;28;20194;-61
2023/03/18 04:12:44;;;;;;;76.45;50.30;;;;;;;;;;4984361;28;20042;-63
2023/03/18 04:15:11;;;;;;;85.03;50.95;;;;;;;;;;4991083;28;20396;-62
2023/03/18 04:17:36;;;;;;;82.63;51.20;;;7.20;1.00;;;;;;4982719;28;20042;-62
2023/03/18 04:20:04;;;;;;;77.72;47.08;;;;;;;;;;4986198;28;20739;-62
2023/03/18 04:22:30;;;;;;;70.97;45.20;;;7.40;33.70;;;;;;4985117;28;20113;-62
2023/03/18 04:24:56;;;;;;;72.45;45.50;;;7.50;99.90;;;;;;4991442;28;20459;-62
2023/03/18 04:27:22;;;;;;;77.70;47.95;;;7.40;1.00;;;;;;4990551;28;20130;-62
2023/03/18 04:29:47;;;;;;;69.32;41.67;;;7.50;99.90;;;;;;4981965;28;20096;-61
2023/03/18 04:32:13;;;;;;;73.50;44.63;;;;;;;;;;4987703;28;20049;-62
2023/03/18 04:34:39;;;;;;;76.32;46.08;;;;;;;;;;4989857;28;20597;-62
2023/03/18 04:37:07;;;;;;;81.25;46.03;;;;;;;;;;4991001;28;20503;-62
2023/03/18 04:39:33;;;;;;;100.25;47.38;;;8.50;99.90;;;;;;4973305;28;20042;-63
2023/03/18 04:41:59;;;;;;;149.57;53.50;;;8.30;99.90;;;;;;4989889;28;20046;-62
2023/03/18 04:44:25;;;;;;;200.27;57.83;;;8.10;99.90;;;;;;4989593;28;20041;-62
2023/03/18 04:46:52;;;;;;;198.23;62.30;;;7.80;99.90;;;;;;4982931;28;20046;-62
2023/03/18 04:49:18;;;;;;;167.80;56.45;;;;;;;;;;4984139;28;20547;-62
2023/03/18 04:51:46;;;;;;;223.02;60.83;;;;;;;;;;4980291;28;20038;-62
2023/03/18 04:54:12;;;;;;;213.52;57.10;;;8.10;99.90;;;;;;4991196;28;20038;-62
2023/03/18 04:56:38;;;;;;;214.63;61.67;;;7.50;99.90;;;;;;4989646;28;20045;-63
2023/03/18 04:59:04;;;;;;;290.95;66.47;;;;;;;;;;4990695;28;20074;-63
2023/03/18 05:01:30;;;;;;;229.18;58.28;;;7.90;1.00;;;;;;4984673;28;20097;-63
2023/03/18 05:03:56;;;;;;;253.52;65.20;;;7.30;1.00;;;;;;4982662;28;20038;-62
2023/03/18 05:06:25;;;;;;;249.15;58.22;;;7.50;3.40;;;;;;4987634;28;20601;-63
2023/03/18 05:08:52;;;;;;;297.67;75.40;;;;;;;;;;4983533;28;20038;-63
2023/03/18 05:11:18;;;;;;;317.10;72.00;;;;;;;;;;4990506;28;20526;-63
2023/03/18 05:13:44;;;;;;;334.63;75.13;;;8.00;52.30;;;;;;4990356;28;20070;-62
2023/03/18 05:16:10;;;;;;;334.25;74.78;;;8.00;52.40;;;;;;4989005;28;20373;-63
2023/03/18 05:18:37;;;;;;;288.05;66.47;;;;;;;;;;4989830;28;20049;-64
2023/03/18 05:21:04;;;;;;;323.55;71.78;;;;;;;;;;4985727;28;20489;-63
2023/03/18 05:23:30;;;;;;;341.88;69.80;;;8.10;99.90;;;;;;4981139;28;20416;-63
2023/03/18 05:25:56;;;;;;;332.45;71.88;;;7.90;1.00;;;;;;4983615;28;20068;-63
2023/03/18 05:28:22;;;;;;;283.02;60.65;;;8.40;99.90;;;;;;4986499;28;20042;-62
2023/03/18 05:30:48;;;;;;;265.10;58.55;;;7.80;99.90;;;;;;4988595;28;20046;-63
2023/03/18 05:33:14;;;;;;;276.35;56.63;;;7.60;99.90;;;;;;4987216;28;20505;-63
2023/03/18 05:35:40;;;;;;;261.70;49.78;;;;;;;;;;4986987;28;20121;-62
2023/03/18 05:38:06;;;;;;;192.20;42.03;;;7.60;99.90;;;;;;4972516;28;20045;-62
2023/03/18 05:40:32;;;;;;;188.02;41.47;;;7.70;99.90;;;;;;4989514;28;20038;-63
2023/03/18 05:42:58;;;;;;;154.63;38.40;;;8.20;1.00;;;;;;4990186;28;20397;-64
2023/03/18 05:45:25;;;;;;;227.00;42.08;;;;;;;;;;4986338;28;20057;-63
2023/03/18 05:47:51;;;;;;;233.18;42.67;;;;;;;;;;4979682;28;20038;-63
2023/03/18 05:50:27;;;;;;;209.93;43.88;;;;;;;;;;4970239;28;20496;-63
2023/03/18 05:52:53;;;;;;;212.95;43.05;;;8.20;1.00;;;;;;4978681;28;20514;-64
2023/03/18 05:55:19;;;;;;;224.68;46.60;;;8.60;99.90;;;;;;4992004;28;20109;-63
2023/03/18 05:57:45;;;;;;;218.60;46.90;;;8.40;99.90;;;;;;4987330;28;20042;-63
2023/03/18 06:00:12;;;;;;;265.55;53.33;;;8.20;99.90;;;;;;4988425;28;20034;-63
2023/03/18 06:02:37;;;;;;;282.65;56.55;;;8.10;99.90;;;;;;4981769;28;20074;-63
2023/03/18 06:05:03;;;;;;;278.95;62.55;;;7.80;99.90;;;;;;4989978;28;20068;-63
2023/03/18 06:07:29;;;;;;;287.30;64.38;;;8.20;99.90;;;;;;4989427;28;20049;-63
2023/03/18 06:09:55;;;;;;;377.65;80.85;;;8.20;99.90;;;;;;4989229;28;20579;-63
2023/03/18 06:12:22;;;;;;;245.63;61.38;;;8.20;99.90;;;;;;4981999;28;20046;-62
2023/03/18 06:14:48;;;;;;;288.05;72.82;;;8.30;99.90;;;;;;4979912;28;20059;-63
2023/03/18 06:17:14;;;;;;;275.98;71.35;;;8.60;99.90;;;;;;4977593;28;20110;-65
2023/03/18 06:19:39;;;;;;;281.83;73.38;;;8.00;99.90;;;;;;4980386;28;20522;-63
2023/03/18 06:22:05;;;;;;;393.40;91.25;;;8.30;94.20;;;;;;4973151;28;20045;-63
2023/03/18 06:24:31;;;;;;;440.85;100.43;;;8.40;99.10;;;;;;4985984;28;20038;-63
2023/03/18 06:26:57;;;;;;;388.30;88.75;;;7.70;99.90;;;;;;4986956;28;20464;-63
2023/03/18 06:29:22;;;;;;;291.77;72.28;;;8.80;99.90;;;;;;4990664;28;20065;-63
2023/03/18 06:31:48;;;;;;;421.38;96.38;;;8.40;99.90;;;;;;4985202;28;20384;-63
2023/03/18 06:34:14;;;;;;;300.83;81.03;;;8.30;99.90;;;;;;4992125;28;20406;-63
2023/03/18 06:36:40;;;;;;;274.52;79.28;;;8.00;99.90;;;;;;4991414;28;20038;-63
2023/03/18 06:39:06;;;;;;;224.75;72.95;;;9.00;99.90;;;;;;4991677;28;20069;-63
2023/03/18 06:41:31;;;;;;;250.10;78.68;;;8.30;99.90;;;;;;4992560;28;20081;-63
2023/03/18 06:43:57;;;;;;;204.35;71.55;;;8.80;99.90;;;;;;4992974;28;20034;-63
2023/03/18 06:46:23;;;;;;;158.02;63.78;;;8.60;99.90;;;;;;4993261;28;20034;-63
2023/03/18 06:48:49;;;;;;;152.60;60.28;;;;;;;;;;4985605;28;20117;-63
2023/03/18 06:51:14;;;;;;;147.82;60.75;;;8.80;99.90;;;;;;4991045;28;20129;-63
2023/03/18 06:53:40;;;;;;;142.32;60.83;;;8.70;99.90;;;;;;4973860;28;20134;-63
2023/03/18 06:56:06;;;;;;;126.22;59.65;;;8.70;97.60;;;;;;4977344;28;20051;-64
2023/03/18 06:58:32;;;;;;;131.25;58.65;;;8.50;99.90;;;;;;4986445;28;20157;-63
2023/03/18 07:00:59;;;;;;;118.65;57.10;;;8.70;99.90;;;;;;4987478;28;20074;-62
2023/03/18 07:03:25;;;;;;;114.00;54.33;;;8.90;93.30;;;;;;4986723;28;20047;-63
2023/03/18 07:05:51;;;;;;;100.55;53.30;;;8.90;71.10;;;;;;4982320;28;20144;-63
2023/03/18 07:08:17;;;;;;;103.28;53.15;;;8.90;48.60;;;;;;4982423;28;20125;-64
2023/03/18 07:10:43;;;;;;;98.50;53.97;;;9.10;1.00;;;;;;4989785;28;20126;-64
2023/03/18 07:13:09;;;;;;;86.80;50.50;;;;;;;;;;4990947;28;20388;-64
2023/03/18 07:15:37;;;;;;;92.07;52.50;;;8.90;99.90;;;;;;4991632;28;20577;-65
2023/03/18 07:18:05;;;;;;;84.57;48.95;;;;;;;;;;4991982;28;20558;-65
2023/03/18 07:20:31;;;;;;;76.07;47.92;;;9.00;99.90;;;;;;4987571;28;21904;-65
2023/03/18 07:22:58;;;;;;;78.78;48.65;;;9.10;99.90;;;;;;4974178;28;20042;-65
2023/03/18 07:25:23;;;;;;;81.80;49.50;;;9.10;99.90;;;;;;4976509;28;20118;-64
2023/03/18 07:27:49;;;;;;;75.63;47.53;;;9.20;99.90;;;;;;4974410;28;20228;-65
2023/03/18 07:30:16;;;;;;;72.10;49.03;;;;;;;;;;4965277;28;20031;-65
2023/03/18 07:32:42;;;;;;;72.03;46.20;;;8.80;99.90;;;;;;4972255;28;20568;-64
2023/03/18 07:35:10;;;;;;;66.82;44.60;;;;;;;;;;4987328;28;20141;-64
2023/03/18 07:37:36;;;;;;;69.15;45.33;;;9.40;99.90;;;;;;4975835;28;20049;-64
2023/03/18 07:40:02;;;;;;;66.82;45.05;;;9.10;99.90;;;;;;4982767;28;20042;-65
2023/03/18 07:42:28;;;;;;;63.70;42.97;;;9.00;99.90;;;;;;4986467;28;20524;-64
2023/03/18 07:44:54;;;;;;;60.28;42.65;;;9.00;99.90;;;;;;4984313;28;20034;-64
2023/03/18 07:47:19;;;;;;;66.60;42.90;;;9.10;99.90;;;;;;4991517;28;20046;-62
2023/03/18 07:49:46;;;;;;;58.30;39.95;;;9.70;99.90;;;;;;4990861;28;20038;-62
2023/03/18 07:52:11;;;;;;;54.20;39.70;;;10.30;66.20;;;;;;4981039;28;20412;-63
2023/03/18 07:54:37;;;;;;;56.67;39.13;;;10.10;58.80;;;;;;4978009;28;20041;-62
2023/03/18 07:57:03;;;;;;;48.78;36.10;;;10.00;99.90;;;;;;4981079;28;20056;-63
2023/03/18 07:59:30;;;;;;;54.80;36.25;;;;;;;;;;4980811;28;20046;-62
2023/03/18 08:01:55;;;;;;;48.40;35.85;;;10.40;42.40;;;;;;4973984;28;20077;-62
2023/03/18 08:04:21;;;;;;;46.95;34.60;;;9.60;12.10;;;;;;4985847;28;20441;-62
2023/03/18 08:06:47;;;;;;;46.22;35.28;;;10.30;1.00;;;;;;4989618;28;20089;-63
2023/03/18 08:09:12;;;;;;;52.15;35.30;;;10.40;91.60;;;;;;4982138;28;20034;-62
2023/03/18 08:11:38;;;;;;;49.10;33.50;;;10.50;1.00;;;;;;4989723;28;20042;-63
2023/03/18 08:14:04;;;;;;;48.33;33.65;;;10.80;99.90;;;;;;4986232;28;20142;-65
2023/03/18 08:16:30;;;;;;;48.85;32.40;;;10.90;99.90;;;;;;4971156;28;20047;-64
2023/03/18 08:18:55;;;;;;;44.40;32.53;;;10.80;99.90;;;;;;4983844;28;20045;-63
2023/03/18 08:21:21;;;;;;;41.65;32.03;;;10.80;99.90;;;;;;4986651;28;20031;-62
2023/03/18 08:23:47;;;;;;;43.25;31.05;;;10.70;99.90;;;;;;4977151;28;20035;-63
2023/03/18 08:26:13;;;;;;;44.90;31.67;;;;;;;;;;4984814;28;20034;-63
2023/03/18 08:28:39;;;;;;;43.42;31.13;;;11.00;99.90;;;;;;4989814;28;20065;-63
2023/03/18 08:31:04;;;;;;;39.25;30.67;;;10.90;99.90;;;;;;4990812;28;20038;-63
2023/03/18 08:33:32;;;;;;;44.70;32.20;;;11.00;99.90;;;;;;4975491;28;20057;-63
2023/03/18 08:35:58;;;;;;;40.38;30.05;;;11.00;99.90;;;;;;4986922;28;20097;-63
2023/03/18 08:38:24;;;;;;;37.50;28.65;;;11.10;54.50;;;;;;4989424;28;20034;-62
2023/03/18 08:40:50;;;;;;;41.55;29.92;;;11.00;1.00;;;;;;4989577;28;20042;-63
2023/03/18 08:43:16;;;;;;;33.88;27.48;;;11.10;1.00;;;;;;4987956;28;20040;-63
2023/03/18 08:45:42;;;;;;;40.92;29.23;;;11.20;1.00;;;;;;4988280;28;20037;-63
2023/03/18 08:48:08;;;;;;;40.42;27.58;;;11.40;1.00;;;;;;4990459;28;20133;-63
2023/03/18 08:50:34;;;;;;;35.75;27.85;;;11.40;1.00;;;;;;4988358;28;20117;-63
2023/03/18 08:53:01;;;;;;;36.72;27.30;;;11.50;1.00;;;;;;4988769;28;20034;-63
2023/03/18 08:55:29;;;;;;;34.85;26.30;;;11.30;99.90;;;;;;4990746;28;20038;-63
2023/03/18 08:57:55;;;;;;;34.15;27.50;;;11.70;99.90;;;;;;5002116;28;20046;-62
2023/03/18 09:00:21;;;;;;;35.08;25.92;;;;;;;;;;4987460;28;20141;-63
2023/03/18 09:02:47;;;;;;;32.28;24.83;;;11.90;1.00;;;;;;4987708;28;20046;-63
2023/03/18 09:05:14;;;;;;;33.53;24.88;;;12.00;99.90;;;;;;4989259;28;20109;-63
2023/03/18 09:07:39;;;;;;;30.88;24.35;;;12.00;99.90;;;;;;4988823;28;20074;-63
2023/03/18 09:10:05;;;;;;;32.03;24.90;;;11.70;99.90;;;;;;4989813;28;20031;-63
2023/03/18 09:12:32;;;;;;;32.05;25.38;;;12.40;99.90;;;;;;4990142;28;20046;-63
2023/03/18 09:14:57;;;;;;;34.42;23.98;;;12.40;99.90;;;;;;4984020;28;20383;-63
2023/03/18 09:17:23;;;;;;;30.35;23.10;;;12.10;99.90;;;;;;4989017;28;20042;-63
2023/03/18 09:19:49;;;;;;;26.98;21.00;;;12.70;99.90;;;;;;4989261;28;20113;-63
2023/03/18 09:22:17;;;;;;;29.65;22.77;;;12.40;99.90;;;;;;4988671;28;20046;-63
2023/03/18 09:24:42;;;;;;;29.05;22.63;;;12.40;99.90;;;;;;4988138;28;20408;-63
2023/03/18 09:27:08;;;;;;;30.60;23.48;;;12.80;99.90;;;;;;4989275;28;20046;-64
2023/03/18 09:29:35;;;;;;;32.22;22.95;;;12.30;99.90;;;;;;4989453;28;20548;-63
2023/03/18 09:32:01;;;;;;;30.45;22.80;;;12.50;99.90;;;;;;4989372;28;20389;-63
2023/03/18 09:34:27;;;;;;;28.10;22.58;;;12.60;99.90;;;;;;4986278;28;20034;-63
2023/03/18 09:36:52;;;;;;;31.52;24.90;;;12.00;99.90;;;;;;4982792;28;20043;-63
2023/03/18 09:39:19;;;;;;;30.60;24.75;;;12.70;99.90;;;;;;4989822;28;20111;-63
2023/03/18 09:41:57;;;;;;;30.17;23.63;;;12.30;99.90;;;;;;4990041;28;20042;-63
2023/03/18 09:44:28;;;;;;;31.02;24.20;;;12.10;99.90;;;;;;4984292;28;20062;-63
2023/03/18 09:47:11;;;;;;;29.58;22.35;;;13.10;99.90;;;;;;4989501;28;20045;-63
2023/03/18 09:50:04;;;;;;;33.50;22.83;;;12.70;99.90;;;;;;4988711;28;20500;-62
2023/03/18 09:52:41;;;;;;;29.90;21.52;;;13.00;91.70;;;;;;4986141;28;20042;-62
2023/03/18 09:55:27;;;;;;;29.92;21.98;;;12.90;93.30;;;;;;4989292;28;20082;-63
2023/03/18 09:58:00;;;;;;;27.77;21.92;;;12.50;55.90;;;;;;4977441;28;20079;-63
2023/03/18 10:00:35;;;;;;;29.23;21.08;;;13.10;90.30;;;;;;4989878;28;20559;-62
2023/03/18 10:03:26;;;;;;;26.90;20.75;;;12.30;88.30;;;;;;4961766;28;20167;-61
2023/03/18 10:05:58;;;;;;;27.45;21.20;;;12.80;74.70;;;;;;5000946;28;20073;-62
2023/03/18 10:08:45;;;;;;;27.63;20.90;;;13.30;42.60;;;;;;4993612;28;20050;-62
2023/03/18 10:11:20;;;;;;;27.23;20.83;;;13.20;12.70;;;;;;4989197;28;20042;-63
2023/03/18 10:14:20;;;;;;;25.35;18.95;;;13.40;25.70;;;;;;4995599;28;20037;-62
2023/03/18 10:17:08;;;;;;;27.52;18.98;;;13.00;1.00;;;;;;4975683;28;20085;-61
2023/03/18 10:19:36;;;;;;;23.58;17.75;;;12.90;1.00;;;;;;4993762;28;20038;-62
2023/03/18 10:22:10;;;;;;;24.27;18.23;;;12.80;1.00;;;;;;4992928;28;20033;-62
2023/03/18 10:24:50;;;;;;;22.08;15.70;;;12.50;15.40;;;;;;4996666;28;20039;-63
2023/03/18 10:27:48;;;;;;;19.98;13.55;;;12.80;19.60;;;;;;4993701;28;20407;-63
2023/03/18 10:30:44;;;;;;;20.10;13.90;;;13.10;1.00;;;;;;4986252;28;20065;-63
2023/03/18 10:33:40;;;;;;;21.40;14.90;;;12.70;1.40;;;;;;4986898;28;20038;-63
2023/03/18 10:36:34;;;;;;;22.60;15.65;;;13.20;1.00;;;;;;4990469;28;20133;-63
2023/03/18 10:39:02;;;;;;;22.40;15.27;;;12.60;10.70;;;;;;4966159;28;20046;-63
2023/03/18 10:41:35;;;;;;;19.30;14.57;;;13.10;11.10;;;;;;4992254;28;20038;-62
2023/03/18 10:44:20;;;;;;;16.60;12.25;;;13.40;1.00;;;;;;4991707;28;20612;-63
2023/03/18 10:46:52;;;;;;;17.27;13.18;;;13.60;1.00;;;;;;4994882;28;20046;-63
2023/03/18 10:49:24;;;;;;;16.35;11.65;;;13.70;1.00;;;;;;4978545;28;20034;-63
2023/03/18 10:52:00;;;;;;;17.02;11.45;;;12.90;1.00;;;;;;4994338;28;20073;-62
2023/03/18 10:54:39;;;;;;;16.45;12.05;;;13.40;1.00;;;;;;4993486;28;20064;-63
2023/03/18 10:57:05;;;;;;;15.32;11.38;;;12.90;1.00;;;;;;4989139;28;20049;-63
2023/03/18 10:59:33;;;;;;;15.10;11.43;;;13.20;1.00;;;;;;4999015;28;20042;-62
2023/03/18 11:02:03;;;;;;;15.15;9.77;;;13.30;1.00;;;;;;4991189;28;20467;-62
2023/03/18 11:04:42;;;;;;;13.60;10.32;;;13.20;1.00;;;;;;4992642;28;20443;-62
2023/03/18 11:07:17;;;;;;;14.20;10.57;;;13.70;1.00;;;;;;4984502;28;20053;-63
2023/03/18 11:09:43;;;;;;;14.63;7.30;;;13.50;1.00;;;;;;4996951;28;20065;-62
2023/03/18 11:12:24;;;;;;;11.15;7.13;;;13.80;1.00;;;;;;4991383;28;20536;-62
2023/03/18 11:14:52;;;;;;;10.68;6.40;;;14.30;1.00;;;;;;4990629;28;20073;-62
2023/03/18 11:17:48;;;;;;;11.38;6.97;;;13.30;99.90;;;;;;4986537;28;20047;-62
2023/03/18 11:20:24;;;;;;;7.63;4.85;;;14.30;99.90;;;;;;4973733;28;20057;-62
2023/03/18 11:22:56;;;;;;;6.93;3.05;;;13.80;99.90;;;;;;4990081;28;20039;-63
2023/03/18 11:25:25;;;;;;;10.18;6.03;;;14.40;99.90;;;;;;4991306;28;20552;-64
2023/03/18 11:28:02;;;;;;;9.88;5.63;;;14.50;99.90;;;;;;4991835;28;20566;-63
2023/03/18 11:30:34;;;;;;;9.75;5.38;;;14.40;99.90;;;;;;4992394;28;20042;-63
2023/03/18 11:33:09;;;;;;;9.18;6.05;;;14.60;99.90;;;;;;4991548;28;20077;-64
2023/03/18 11:35:57;;;;;;;9.07;6.15;;;14.70;99.90;;;;;;4992403;28;20038;-63
2023/03/18 11:38:27;;;;;;;7.68;4.20;;;14.70;99.90;;;;;;4986816;28;20121;-63
2023/03/18 11:41:06;;;;;;;7.25;3.95;;;14.60;99.90;;;;;;4991313;28;20074;-63
2023/03/18 11:43:31;;;;;;;7.55;5.15;;;14.90;99.90;;;;;;4990866;28;20124;-64
2023/03/18 11:46:04;;;;;;;9.23;5.18;;;15.40;99.90;;;;;;4991530;28;20050;-64
2023/03/18 11:48:35;;;;;;;8.23;5.22;;;15.10;99.90;;;;;;4987375;28;20042;-64
2023/03/18 11:51:37;;;;;;;9.60;5.75;;;16.00;99.90;;;;;;4991418;28;20045;-64
2023/03/18 11:54:33;;;;;;;9.48;6.10;;;16.20;99.90;;;;;;4979152;28;20496;-63
2023/03/18 11:57:40;;;;;;;8.15;4.85;;;16.50;99.90;;;;;;4989304;28;20046;-63
2023/03/18 12:00:32;;;;;;;7.95;4.53;;;16.30;99.90;;;;;;4991414;28;20117;-64
2023/03/18 12:03:03;;;;;;;9.75;4.95;;;17.50;99.90;;;;;;4991163;28;20046;-64
2023/03/18 12:05:39;;;;;;;7.90;4.32;;;19.50;99.90;;;;;;4986239;28;20057;-63
2023/03/18 12:08:09;;;;;;;7.32;3.72;;;20.90;99.90;;;;;;4989880;28;20496;-64
2023/03/18 12:10:38;;;;;;;8.90;4.30;;;21.50;99.90;;;;;;4973379;28;20057;-64
2023/03/18 12:13:25;;;;;;;7.38;4.30;;;21.50;99.90;;;;;;4983283;28;20105;-63
2023/03/18 12:15:53;;;;;;;7.82;4.20;;;23.00;99.90;;;;;;4989128;28;20046;-63
2023/03/18 12:18:43;;;;;;;8.35;4.07;;;24.60;99.90;;;;;;4990039;28;20061;-63
2023/03/18 12:21:17;;;;;;;5.82;2.45;;;26.10;99.90;;;;;;4991463;28;20112;-63
2023/03/18 12:24:01;;;;;;;4.80;2.15;;;26.30;99.90;;;;;;4990802;28;20039;-63
2023/03/18 12:26:44;;;;;;;4.95;2.15;;;26.90;99.90;;;;;;4985179;28;20503;-63
2023/03/18 12:29:36;;;;;;;5.22;2.17;;;26.40;99.90;;;;;;4989492;28;20118;-63
2023/03/18 12:32:23;;;;;;;4.38;1.85;;;27.00;99.90;;;;;;4990835;28;20042;-63
2023/03/18 12:35:02;;;;;;;4.05;1.58;;;27.20;99.90;;;;;;4993660;28;20759;-63
2023/03/18 12:37:53;;;;;;;4.85;1.95;;;27.30;99.90;;;;;;4991485;28;20125;-62
2023/03/18 12:40:38;;;;;;;3.75;1.45;;;27.90;99.90;;;;;;4983060;28;20065;-63
2023/03/18 12:43:22;;;;;;;4.88;1.60;;;27.60;99.90;;;;;;4990637;28;20057;-63
2023/03/18 12:45:57;;;;;;;2.97;1.00;;;27.30;99.90;;;;;;4990600;28;20056;-63
2023/03/18 12:48:34;;;;;;;3.30;1.15;;;27.10;99.90;;;;;;4958359;28;20044;-63
2023/03/18 12:51:09;;;;;;;5.07;1.30;;;27.70;99.90;;;;;;4990563;28;20377;-63
2023/03/18 12:53:40;;;;;;;4.60;1.35;;;27.60;99.90;;;;;;4986464;28;20126;-62
2023/03/18 12:56:17;;;;;;;4.20;1.50;;;27.50;99.90;;;;;;4990689;28;20038;-63
2023/03/18 12:58:47;;;;;;;3.30;1.33;;;27.90;99.90;;;;;;4990111;28;20042;-63
2023/03/18 13:01:39;;;;;;;4.82;1.52;;;27.80;99.90;;;;;;4990343;28;20045;-62